Time;durP1;ratioP1;P1;durP2;ratioP2;P2;SDS_P1;SDS_P2;PMS_P1;PMS_P2;Temp;Humidity;BMP_temperature;BMP_pressure;BME280_temperature;BME280_humidity;BME280_pressure;Samples;Min_cycle;Max_cycle;Signal;HPM_P1;HPM_P2
2022/08/30 04:59:20;;;;;;;;;;;;;;;20.11;75.25;99641.44;5150972;27;679;-60
2022/08/30 05:01:47;;;;;;;;;;;;;;;20.48;75.28;99652.50;5150529;27;889;-61
2022/08/30 05:04:14;;;;;;;;;;;;;;;20.82;74.30;99642.06;5150420;27;882;-61
2022/08/30 05:06:41;;;;;;;;;;;;;;;21.12;73.07;99645.81;5150442;27;845;-61
2022/08/30 05:09:08;;;;;;;;;;;;;;;21.36;71.13;99639.38;5150619;27;907;-58
2022/08/30 05:11:37;;;;;;;;;;;;;;;21.61;69.41;99640.88;5150556;27;880;-58
2022/08/30 05:26:19;;;;;;;;;;;;;;;22.84;60.03;99647.00;5150440;27;620;-58
2022/08/30 05:28:46;;;;;;;;;;;;;;;22.97;59.70;99650.25;5150024;27;835;-58
2022/08/30 05:34:16;;;;;;;;;;;;;;;23.21;57.63;99650.09;5149981;27;1972;-58
2022/08/30 05:36:43;;;;;;;;;;;;;;;23.34;56.37;99651.75;5149620;27;889;-58
2022/08/30 05:39:09;;;;;;;;;;;;;;;23.46;55.67;99647.78;5149841;27;889;-58
2022/08/30 05:41:36;;;;;;;;;;;;;;;23.64;54.82;99643.88;5149646;27;874;-58
2022/08/30 05:44:04;;;;;;;;;;;;;;;23.82;54.22;99646.41;5131229;27;1254;-58
2022/08/30 05:46:32;;;;;;;;;;;;;;;24.03;53.43;99641.47;5149677;27;892;-58
2022/08/30 05:49:00;;;;;;;;;;;;;;;24.28;52.72;99635.50;5149516;27;921;-58
2022/08/30 05:51:28;;;;;;;;;;;;;;;24.56;51.78;99635.72;5149772;27;778;-58
2022/08/30 05:53:56;;;;;;;;;;;;;;;24.72;50.80;99631.47;5149127;27;1897;-58
2022/08/30 05:56:25;;;;;;;;;;;;;;;24.87;50.34;99640.53;5149582;27;825;-58
2022/08/30 05:58:52;;;;;;;;;;;;;;;25.08;50.30;99640.38;5149648;27;862;-58
2022/08/30 06:01:27;;;;;;;;;;;;;;;25.39;49.84;99645.94;5131133;27;806;-58
2022/08/30 06:03:55;;;;;;;;;;;;;;;25.68;49.85;99635.44;5149235;27;920;-58
2022/08/30 06:06:23;;;;;;;;;;;;;;;25.97;49.45;99639.91;5141647;27;925;-58
2022/08/30 06:08:50;;;;;;;;;;;;;;;26.31;48.98;99636.28;5135507;27;864;-58
2022/08/30 06:11:18;;;;;;;;;;;;;;;26.41;48.11;99640.41;5135686;27;821;-58
2022/08/30 06:13:45;;;;;;;;;;;;;;;26.60;47.80;99635.75;5135394;27;1971;-59
2022/08/30 06:16:13;;;;;;;;;;;;;;;26.94;47.55;99638.50;5135420;27;825;-58
2022/08/30 06:18:39;;;;;;;;;;;;;;;27.26;46.92;99635.31;5135331;27;853;-58
2022/08/30 06:21:05;;;;;;;;;;;;;;;27.60;46.39;99630.22;5135190;27;882;-58
2022/08/30 06:23:32;;;;;;;;;;;;;;;27.83;45.77;99635.78;5116826;27;1654;-58
2022/08/30 06:29:01;;;;;;;;;;;;;;;28.26;44.70;99655.09;5135214;27;672;-58
2022/08/30 06:31:27;;;;;;;;;;;;;;;28.48;44.28;99648.41;5135039;27;877;-58
2022/08/30 06:33:55;;;;;;;;;;;;;;;28.82;43.06;99648.88;5135222;27;1889;-58
2022/08/30 06:36:23;;;;;;;;;;;;;;;29.34;41.78;99647.00;5134977;27;849;-58
2022/08/30 06:38:50;;;;;;;;;;;;;;;29.92;40.74;99642.84;5116513;27;1291;-58
2022/08/30 06:41:19;;;;;;;;;;;;;;;30.57;39.80;99648.50;5135080;27;862;-58
2022/08/30 06:43:44;;;;;;;;;;;;;;;31.09;38.83;99647.78;5134750;27;1046;-58
2022/08/30 06:46:12;;;;;;;;;;;;;;;31.60;37.62;99646.72;5134744;27;859;-58
2022/08/30 06:48:39;;;;;;;;;;;;;;;32.21;36.53;99652.31;5134886;27;833;-57
2022/08/30 06:51:06;;;;;;;;;;;;;;;32.55;35.35;99648.59;5134959;27;841;-58
2022/08/30 06:54:04;;;;;;;;;;;;;;;32.89;35.24;99650.56;5134546;27;813;-58
2022/08/30 06:56:31;;;;;;;;;;;;;;;33.01;34.55;99648.13;5093613;28;906;-57
2022/08/30 06:58:58;;;;;;;;;;;;;;;33.06;34.11;99650.06;5093632;28;1067;-58
2022/08/30 07:01:26;;;;;;;;;;;;;;;32.95;34.33;99648.31;5093640;28;801;-58
2022/08/30 07:06:56;;;;;;;;;;;;;;;33.18;33.81;99648.47;5093475;28;581;-57
2022/08/30 07:09:24;;;;;;;;;;;;;;;33.72;32.83;99652.28;5093424;28;794;-58
2022/08/30 07:11:51;;;;;;;;;;;;;;;33.95;32.22;99649.47;5093252;28;921;-58
2022/08/30 07:14:18;;;;;;;;;;;;;;;34.19;32.34;99661.00;5093352;28;786;-57
2022/08/30 07:16:58;;;;;;;;;;;;;;;34.34;31.41;99666.75;5093321;28;1240;-57
2022/08/30 07:19:24;;;;;;;;;;;;;;;34.52;31.41;99664.81;5092832;28;814;-58
2022/08/30 07:21:51;;;;;;;;;;;;;;;35.01;31.08;99654.25;5093343;28;945;-58
2022/08/30 07:24:17;;;;;;;;;;;;;;;34.80;30.93;99655.25;5093213;28;1870;-58
2022/08/30 07:38:56;;;;;;;;;;;;;;;34.90;30.25;99649.69;5093163;28;660;-58
2022/08/30 07:41:32;;;;;;;;;;;;;;;34.76;29.32;99652.03;5091498;28;1275;-58
2022/08/30 07:44:05;;;;;;;;;;;;;;;35.47;28.47;99648.38;5092654;28;1889;-58
2022/08/30 07:46:32;;;;;;;;;;;;;;;35.23;28.39;99652.66;5092678;28;774;-58
2022/08/30 07:52:03;;;;;;;;;;;;;;;34.92;28.86;99650.63;5089257;28;2606;-58
2022/08/30 07:54:29;;;;;;;;;;;;;;;35.43;28.80;99639.38;5098992;27;1550;-58
2022/08/30 07:56:56;;;;;;;;;;;;;;;35.32;28.80;99649.19;5133637;27;877;-58
2022/08/30 07:59:45;;;;;;;;;;;;;;;35.26;28.96;99645.78;5133381;27;877;-59
2022/08/30 08:02:12;;;;;;;;;;;;;;;34.88;29.28;99652.38;5114812;27;1309;-59
2022/08/30 08:04:38;;;;;;;;;;;;;;;34.74;29.66;99655.47;5133039;27;1968;-59
2022/08/30 08:07:04;;;;;;;;;;;;;;;34.72;29.35;99643.03;5133155;27;782;-60
2022/08/30 08:09:30;;;;;;;;;;;;;;;34.27;29.95;99662.53;5133208;27;841;-59
2022/08/30 08:11:57;;;;;;;;;;;;;;;34.68;29.80;99663.50;5133086;27;810;-59
2022/08/30 08:14:27;;;;;;;;;;;;;;;35.35;29.27;99645.16;5133399;27;801;-59
2022/08/30 08:16:54;;;;;;;;;;;;;;;35.92;28.82;99646.59;5133036;27;833;-59
2022/08/30 08:31:36;;;;;;;;;;;;;;;36.21;27.61;99623.19;5133172;27;655;-59
2022/08/30 08:34:04;;;;;;;;;;;;;;;35.86;27.72;99634.56;5132557;27;885;-58
2022/08/30 08:36:32;;;;;;;;;;;;;;;35.96;28.15;99632.56;5132591;27;881;-58
2022/08/30 08:39:08;;;;;;;;;;;;;;;36.16;27.84;99630.72;5132587;27;937;-59
2022/08/30 08:41:50;;;;;;;;;;;;;;;35.53;28.39;99632.44;5132576;27;845;-59
2022/08/30 08:44:34;;;;;;;;;;;;;;;35.65;28.23;99627.00;5132486;27;1952;-58
2022/08/30 08:47:09;;;;;;;;;;;;;;;35.93;27.93;99630.84;5132638;27;790;-58
2022/08/30 08:49:37;;;;;;;;;;;;;;;36.14;27.30;99639.16;5132493;27;966;-58
2022/08/30 08:55:06;;;;;;;;;;;;;;;35.65;27.71;99635.63;5132533;28;1196;-58
2022/08/30 08:57:34;;;;;;;;;;;;;;;35.72;27.92;99640.59;5132407;28;913;-58
2022/08/30 09:00:03;;;;;;;;;;;;;;;35.87;26.98;99631.09;5132366;28;878;-58
2022/08/30 09:02:38;;;;;;;;;;;;;;;36.20;26.96;99630.31;5132631;28;822;-57
2022/08/30 09:05:03;;;;;;;;;;;;;;;36.06;26.00;99629.81;5132669;28;1965;-57
2022/08/30 09:07:39;;;;;;;;;;;;;;;36.10;26.13;99628.03;5132424;28;794;-57
2022/08/30 09:22:27;;;;;;;;;;;;;;;35.98;25.51;99622.00;5132632;28;694;-57
2022/08/30 09:24:59;;;;;;;;;;;;;;;35.76;26.11;99617.94;5132159;28;1897;-57
2022/08/30 09:27:32;;;;;;;;;;;;;;;35.63;26.09;99626.03;5132525;28;956;-57
2022/08/30 09:33:04;;;;;;;;;;;;;;;35.23;25.06;99610.38;5131912;28;1452;-57
2022/08/30 09:35:34;;;;;;;;;;;;;;;35.02;25.40;99609.84;5113723;28;1242;-57
2022/08/30 09:38:07;;;;;;;;;;;;;;;34.92;25.88;99606.81;5132183;28;915;-57
2022/08/30 09:40:38;;;;;;;;;;;;;;;34.70;25.94;99614.91;5132127;27;895;-57
2022/08/30 09:43:05;;;;;;;;;;;;;;;34.55;26.54;99618.53;5117559;27;1404;-57
2022/08/30 09:45:35;;;;;;;;;;;;;;;34.69;26.45;99606.88;5135881;27;1914;-57
2022/08/30 09:48:21;;;;;;;;;;;;;;;35.05;25.91;99602.94;5117888;27;845;-58
2022/08/30 09:51:18;;;;;;;;;;;;;;;35.09;26.55;99609.81;5117489;27;898;-57
2022/08/30 09:54:14;;;;;;;;;;;;;;;35.39;26.00;99596.69;5052568;28;1390;-58
2022/08/30 09:56:57;;;;;;;;;;;;;;;35.23;25.00;99603.84;5052265;28;1210;-57
2022/08/30 09:59:45;;;;;;;;;;;;;;;35.21;25.50;99601.56;5052254;28;882;-58
2022/08/30 10:02:31;;;;;;;;;;;;;;;35.26;25.12;99602.69;5035840;28;814;-58
2022/08/30 10:05:22;;;;;;;;;;;;;;;35.40;25.10;99592.47;5052200;28;1976;-58
2022/08/30 10:07:59;;;;;;;;;;;;;;;35.67;24.80;99591.94;5052302;28;818;-57
2022/08/30 10:10:31;;;;;;;;;;;;;;;36.08;24.16;99590.50;5035594;28;1168;-57
2022/08/30 10:13:02;;;;;;;;;;;;;;;35.93;24.00;99588.50;5052016;28;1219;-57
2022/08/30 10:15:35;;;;;;;;;;;;;;;36.20;24.40;99587.16;5052061;28;894;-57
2022/08/30 10:18:13;;;;;;;;;;;;;;;36.42;23.70;99585.41;5052118;28;901;-57
2022/08/30 10:20:58;;;;;;;;;;;;;;;36.37;23.05;99590.81;5051886;28;992;-57
2022/08/30 10:23:28;;;;;;;;;;;;;;;36.44;23.22;99583.47;5051915;28;1190;-57
2022/08/30 10:25:56;;;;;;;;;;;;;;;36.33;24.13;99583.97;5051758;28;1885;-57
2022/08/30 10:31:35;;;;;;;;;;;;;;;35.85;22.74;99575.50;5134984;27;1171;-57
2022/08/30 10:34:07;;;;;;;;;;;;;;;35.69;22.77;99569.88;5134874;27;886;-57
2022/08/30 10:36:44;;;;;;;;;;;;;;;35.76;23.64;99568.31;5135034;27;802;-58
2022/08/30 10:39:16;;;;;;;;;;;;;;;36.24;23.67;99573.13;5134885;27;881;-57
2022/08/30 10:41:48;;;;;;;;;;;;;;;36.41;22.89;99560.88;5135030;27;805;-57
2022/08/30 10:44:20;;;;;;;;;;;;;;;36.20;22.93;99561.28;5134791;27;1893;-57
2022/08/30 10:46:53;;;;;;;;;;;;;;;36.21;23.40;99571.41;5134710;27;813;-57
2022/08/30 10:49:29;;;;;;;;;;;;;;;36.17;22.95;99563.22;5134647;27;910;-57
2022/08/30 10:52:42;;;;;;;;;;;;;;;36.05;23.60;99562.91;5134425;27;1161;-57
2022/08/30 10:55:15;;;;;;;;;;;;;;;36.18;24.17;99564.72;5134603;27;1210;-57
2022/08/30 10:57:41;;;;;;;;;;;;;;;36.42;23.83;99553.75;5134606;27;897;-57
2022/08/30 11:03:29;;;;;;;;;;;;;;;35.80;24.61;99557.16;5134571;27;692;-58
2022/08/30 11:06:10;;;;;;;;;;;;;;;35.94;24.47;99540.38;5134171;27;1910;-58
2022/08/30 11:08:57;;;;;;;;;;;;;;;36.49;24.39;99538.53;5134380;27;829;-58
2022/08/30 11:12:00;;;;;;;;;;;;;;;36.67;23.98;99545.84;5134261;27;832;-57
2022/08/30 11:14:27;;;;;;;;;;;;;;;36.88;23.18;99533.88;5134263;27;872;-57
2022/08/30 11:16:56;;;;;;;;;;;;;;;37.25;22.31;99536.88;5134062;27;846;-57
2022/08/30 11:19:36;;;;;;;;;;;;;;;37.58;22.04;99537.38;5115918;27;850;-57
2022/08/30 11:22:14;;;;;;;;;;;;;;;37.72;20.97;99537.72;5134149;27;853;-57
2022/08/30 11:24:59;;;;;;;;;;;;;;;37.48;21.72;99527.13;5115755;27;1889;-57
2022/08/30 11:27:44;;;;;;;;;;;;;;;37.22;22.04;99529.44;5133914;27;932;-57
2022/08/30 11:30:27;;;;;;;;;;;;;;;37.39;22.18;99514.97;5115395;27;1214;-58
2022/08/30 11:32:57;;;;;;;;;;;;;;;37.71;21.57;99509.53;5133677;27;917;-57
2022/08/30 11:35:43;;;;;;;;;;;;;;;37.70;21.63;99499.34;5133798;27;886;-58
2022/08/30 11:38:38;;;;;;;;;;;;;;;35.99;22.58;99505.63;5133643;27;897;-59
2022/08/30 11:41:16;;;;;;;;;;;;;;;34.68;23.77;99510.66;5133557;27;1276;-60
2022/08/30 11:43:42;;;;;;;;;;;;;;;34.14;24.78;99511.50;5115174;27;1189;-59
2022/08/30 11:46:42;;;;;;;;;;;;;;;33.88;25.62;99509.78;5115009;27;1897;-58
2022/08/30 11:52:20;;;;;;;;;;;;;;;33.42;33.18;99514.69;5133561;27;628;-59
2022/08/30 11:54:49;;;;;;;;;;;;;;;34.63;32.31;99502.97;5132880;27;1443;-58
2022/08/30 11:57:44;;;;;;;;;;;;;;;35.59;30.93;99491.38;5133449;27;790;-59
2022/08/30 12:00:36;;;;;;;;;;;;;;;35.43;29.86;99498.59;5133022;27;1244;-59
2022/08/30 12:03:13;;;;;;;;;;;;;;;35.25;30.22;99489.13;5133208;27;940;-59
2022/08/30 12:05:41;;;;;;;;;;;;;;;35.34;30.51;99494.25;5132825;27;1917;-59
2022/08/30 12:08:33;;;;;;;;;;;;;;;36.42;29.55;99493.34;5133141;27;889;-60
2022/08/30 12:11:02;;;;;;;;;;;;;;;37.38;27.97;99492.50;5121884;27;1714;-60
2022/08/30 12:13:38;;;;;;;;;;;;;;;38.09;26.64;99485.03;5132959;27;1197;-59
2022/08/30 12:16:14;;;;;;;;;;;;;;;38.63;25.94;99492.69;5133064;27;931;-60
2022/08/30 12:18:47;;;;;;;;;;;;;;;39.02;24.81;99481.09;5132893;27;882;-60
2022/08/30 12:21:23;;;;;;;;;;;;;;;38.66;24.81;99486.44;5133123;27;948;-59
2022/08/30 12:23:50;;;;;;;;;;;;;;;38.16;25.29;99496.44;5132933;27;849;-60
2022/08/30 12:26:19;;;;;;;;;;;;;;;38.13;25.36;99494.00;5132882;27;1909;-60
2022/08/30 12:28:47;;;;;;;;;;;;;;;38.45;25.26;99498.56;5097519;27;1636;-60
2022/08/30 12:31:25;;;;;;;;;;;;;;;38.66;25.07;99483.56;5132948;27;869;-59
2022/08/30 12:33:58;;;;;;;;;;;;;;;38.84;24.87;99484.16;5132849;27;817;-59
2022/08/30 12:36:44;;;;;;;;;;;;;;;38.41;25.44;99480.97;5132493;27;936;-59
2022/08/30 12:39:19;;;;;;;;;;;;;;;38.33;25.33;99480.34;5132725;27;869;-60
2022/08/30 12:41:46;;;;;;;;;;;;;;;38.29;25.03;99485.81;5114545;27;1206;-59
2022/08/30 12:44:15;;;;;;;;;;;;;;;38.22;25.26;99487.50;5132755;27;1941;-59
2022/08/30 12:46:43;;;;;;;;;;;;;;;38.24;25.28;99489.75;5114086;28;1239;-59
2022/08/30 12:49:13;;;;;;;;;;;;;;;38.10;25.54;99475.03;5114220;28;1397;-59
2022/08/30 12:51:41;;;;;;;;;;;;;;;37.90;26.13;99477.84;5132635;27;829;-59
2022/08/30 12:54:23;;;;;;;;;;;;;;;37.86;26.01;99471.78;5132425;27;990;-59
2022/08/30 12:56:58;;;;;;;;;;;;;;;37.96;25.19;99463.91;5091592;28;858;-59
2022/08/30 12:59:49;;;;;;;;;;;;;;;37.65;26.14;99455.00;5091630;28;1786;-60
2022/08/30 13:02:17;;;;;;;;;;;;;;;37.72;26.06;99454.13;5091429;28;1133;-60
2022/08/30 13:04:49;;;;;;;;;;;;;;;38.22;25.35;99457.84;5090234;28;1910;-59
2022/08/30 13:07:28;;;;;;;;;;;;;;;38.55;24.68;99440.88;5090213;28;1339;-60
2022/08/30 13:10:01;;;;;;;;;;;;;;;38.47;24.04;99448.91;5091588;28;881;-59
2022/08/30 13:12:29;;;;;;;;;;;;;;;38.43;24.42;99437.06;5090374;28;914;-59
2022/08/30 13:15:28;;;;;;;;;;;;;;;36.67;27.01;99444.34;5091747;28;945;-59
2022/08/30 13:18:19;;;;;;;;;;;;;;;34.46;29.28;99449.09;5051021;28;1582;-60
2022/08/30 13:20:46;;;;;;;;;;;;;;;35.01;29.41;99444.66;5077337;28;1783;-60
2022/08/30 13:23:22;;;;;;;;;;;;;;;35.95;28.16;99436.28;5094099;28;1195;-60
2022/08/30 13:25:49;;;;;;;;;;;;;;;36.33;27.32;99438.00;5095435;28;1882;-60
2022/08/30 13:28:16;;;;;;;;;;;;;;;36.50;27.02;99436.47;5094003;28;1455;-61
2022/08/30 13:30:43;;;;;;;;;;;;;;;36.55;27.09;99435.44;5094183;28;880;-61
2022/08/30 13:33:10;;;;;;;;;;;;;;;36.67;26.53;99430.69;5095331;28;810;-61
2022/08/30 13:35:37;;;;;;;;;;;;;;;36.39;27.14;99435.63;5093978;28;1207;-60
2022/08/30 13:38:03;;;;;;;;;;;;;;;36.32;27.57;99435.72;5095078;28;932;-60
2022/08/30 13:41:04;;;;;;;;;;;;;;;36.30;27.73;99436.31;5095438;28;805;-61
2022/08/30 13:43:30;;;;;;;;;;;;;;;36.17;28.27;99430.91;5095041;28;1030;-60
2022/08/30 13:45:57;;;;;;;;;;;;;;;36.08;28.23;99425.78;5094990;28;1937;-60
2022/08/30 13:48:25;;;;;;;;;;;;;;;35.82;28.70;99415.72;5095091;28;813;-61
2022/08/30 13:50:52;;;;;;;;;;;;;;;35.56;29.30;99414.97;5093618;28;1340;-60
2022/08/30 13:53:23;;;;;;;;;;;;;;;35.36;29.74;99416.88;5094804;28;1146;-60
2022/08/30 13:55:50;;;;;;;;;;;;;;;34.95;30.50;99422.69;5120156;27;1186;-60
2022/08/30 13:58:17;;;;;;;;;;;;;;;34.79;31.05;99421.25;5117180;27;1311;-60
2022/08/30 14:00:47;;;;;;;;;;;;;;;34.77;31.08;99421.06;5117262;27;1357;-60
2022/08/30 14:03:14;;;;;;;;;;;;;;;34.47;31.19;99419.06;5135621;27;953;-61
2022/08/30 14:05:43;;;;;;;;;;;;;;;34.30;31.89;99420.47;5135432;27;1913;-60
2022/08/30 14:08:12;;;;;;;;;;;;;;;34.17;32.60;99412.09;5135454;27;845;-61
2022/08/30 14:10:39;;;;;;;;;;;;;;;34.24;32.65;99411.31;5136104;27;750;-60
2022/08/30 14:13:08;;;;;;;;;;;;;;;34.16;32.88;99414.22;5135774;27;860;-60
2022/08/30 14:15:36;;;;;;;;;;;;;;;34.34;32.41;99415.09;5135383;27;1003;-60
2022/08/30 14:18:04;;;;;;;;;;;;;;;34.44;32.43;99414.47;5135238;27;866;-60
2022/08/30 14:32:41;;;;;;;;;;;;;;;34.00;31.73;99406.19;5135637;27;635;-60
2022/08/30 14:35:07;;;;;;;;;;;;;;;33.78;31.74;99402.81;5135445;27;833;-60
2022/08/30 14:37:35;;;;;;;;;;;;;;;33.56;32.09;99402.22;5135625;27;739;-60
2022/08/30 14:40:06;;;;;;;;;;;;;;;33.49;32.45;99402.22;5135459;27;799;-60
2022/08/30 14:42:33;;;;;;;;;;;;;;;33.27;33.05;99398.78;5135234;27;850;-59
2022/08/30 14:45:00;;;;;;;;;;;;;;;33.02;34.45;99401.41;5134686;27;1897;-59
2022/08/30 14:47:26;;;;;;;;;;;;;;;32.80;34.55;99393.56;5099317;27;1419;-60
2022/08/30 14:49:57;;;;;;;;;;;;;;;32.70;35.05;99390.47;5134906;27;874;-60
2022/08/30 14:52:25;;;;;;;;;;;;;;;32.68;35.34;99390.25;5134735;27;833;-60
2022/08/30 14:54:51;;;;;;;;;;;;;;;32.44;36.50;99397.22;5134397;27;1371;-61
2022/08/30 14:57:18;;;;;;;;;;;;;;;32.37;36.49;99392.22;5134394;27;958;-60
2022/08/30 14:59:46;;;;;;;;;;;;;;;32.45;36.98;99393.00;5134311;27;944;-60
2022/08/30 15:02:13;;;;;;;;;;;;;;;32.35;37.02;99390.69;5134515;27;790;-60
2022/08/30 15:04:39;;;;;;;;;;;;;;;32.26;37.12;99391.25;5134376;27;1972;-60
2022/08/30 15:07:06;;;;;;;;;;;;;;;32.13;36.96;99392.13;5134562;27;821;-60
2022/08/30 15:09:33;;;;;;;;;;;;;;;31.87;36.48;99398.03;5134361;27;828;-60
2022/08/30 15:12:11;;;;;;;;;;;;;;;31.56;37.34;99402.75;5115834;27;1155;-60
2022/08/30 15:14:41;;;;;;;;;;;;;;;31.42;37.92;99388.53;5134381;27;833;-60
2022/08/30 15:29:20;;;;;;;;;;;;;;;30.10;41.65;99393.34;5134323;27;581;-60
2022/08/30 15:32:11;;;;;;;;;;;;;;;29.88;42.20;99389.63;5133790;27;923;-60
2022/08/30 15:34:37;;;;;;;;;;;;;;;29.67;42.90;99397.25;5134169;27;1084;-60
2022/08/30 15:37:05;;;;;;;;;;;;;;;29.46;44.15;99394.25;5133850;27;839;-60
2022/08/30 15:39:43;;;;;;;;;;;;;;;29.31;45.24;99400.47;5133501;27;825;-60
2022/08/30 15:42:10;;;;;;;;;;;;;;;29.14;45.37;99403.59;5133664;27;904;-60
2022/08/30 15:44:37;;;;;;;;;;;;;;;28.97;46.10;99415.19;5133559;27;1901;-59
2022/08/30 15:47:04;;;;;;;;;;;;;;;28.80;46.85;99414.69;5133674;27;806;-59
2022/08/30 15:49:30;;;;;;;;;;;;;;;28.70;47.27;99405.78;5115149;27;1357;-58
2022/08/30 15:52:01;;;;;;;;;;;;;;;28.63;47.63;99406.38;5133546;27;1162;-58
2022/08/30 15:54:27;;;;;;;;;;;;;;;28.56;47.37;99412.72;5114738;27;1317;-58
2022/08/30 15:56:57;;;;;;;;;;;;;;;28.46;48.19;99406.59;5114850;27;1242;-58
2022/08/30 15:59:25;;;;;;;;;;;;;;;28.37;47.84;99410.59;5114906;27;2246;-57
2022/08/30 16:01:52;;;;;;;;;;;;;;;28.25;47.82;99412.03;5133397;27;892;-57
2022/08/30 16:04:19;;;;;;;;;;;;;;;28.07;48.42;99410.69;5133170;27;1963;-57
2022/08/30 16:06:45;;;;;;;;;;;;;;;27.96;48.98;99413.66;5133170;27;1008;-57
2022/08/30 16:09:12;;;;;;;;;;;;;;;27.84;49.12;99413.75;5133289;27;798;-58
2022/08/30 16:11:39;;;;;;;;;;;;;;;27.74;50.01;99415.41;5133086;27;937;-57
2022/08/30 16:14:08;;;;;;;;;;;;;;;27.62;50.70;99423.25;5133057;27;825;-57
2022/08/30 16:16:40;;;;;;;;;;;;;;;27.46;51.36;99427.81;5133045;27;806;-57
2022/08/30 16:19:07;;;;;;;;;;;;;;;27.32;52.34;99426.13;5114700;27;909;-57
2022/08/30 16:21:35;;;;;;;;;;;;;;;27.19;53.17;99428.78;5132961;27;1060;-58
2022/08/30 16:24:03;;;;;;;;;;;;;;;27.03;53.83;99428.34;5132801;27;898;-57
2022/08/30 16:26:31;;;;;;;;;;;;;;;26.91;54.72;99428.94;5132715;27;854;-58
2022/08/30 16:28:58;;;;;;;;;;;;;;;26.80;55.09;99433.41;5132939;27;881;-57
2022/08/30 16:31:26;;;;;;;;;;;;;;;26.68;55.61;99437.59;5132802;27;825;-57
2022/08/30 16:33:53;;;;;;;;;;;;;;;26.50;56.42;99441.78;5132812;27;837;-57
2022/08/30 16:36:21;;;;;;;;;;;;;;;26.34;57.14;99437.72;5114298;27;1321;-57
2022/08/30 16:38:48;;;;;;;;;;;;;;;26.20;57.63;99447.31;5114191;27;1316;-58
2022/08/30 16:41:16;;;;;;;;;;;;;;;26.04;58.08;99449.66;5132663;27;837;-57
2022/08/30 16:43:50;;;;;;;;;;;;;;;25.89;58.78;99443.53;5114221;27;1324;-57
2022/08/30 16:46:18;;;;;;;;;;;;;;;25.77;59.38;99456.13;5132523;27;1948;-57
2022/08/30 16:48:45;;;;;;;;;;;;;;;25.62;59.83;99462.81;5132561;27;797;-57
2022/08/30 16:51:20;;;;;;;;;;;;;;;25.43;60.63;99461.78;5132541;27;869;-57
2022/08/30 16:53:46;;;;;;;;;;;;;;;25.28;61.47;99464.88;5132612;27;1063;-58
2022/08/30 16:56:15;;;;;;;;;;;;;;;25.13;61.90;99465.09;5132396;28;1230;-57
2022/08/30 16:58:42;;;;;;;;;;;;;;;24.93;62.56;99463.25;5132847;28;856;-57
2022/08/30 17:01:08;;;;;;;;;;;;;;;24.74;63.36;99465.78;5132435;28;838;-57
2022/08/30 17:03:35;;;;;;;;;;;;;;;24.55;64.02;99456.97;5132356;28;841;-58
2022/08/30 17:06:01;;;;;;;;;;;;;;;24.38;64.62;99473.06;5114227;28;1918;-57
2022/08/30 17:08:28;;;;;;;;;;;;;;;24.21;65.24;99472.97;5132510;28;869;-57
2022/08/30 17:10:55;;;;;;;;;;;;;;;24.09;65.92;99477.78;5132631;28;822;-57
2022/08/30 17:13:22;;;;;;;;;;;;;;;24.00;66.00;99480.81;5132587;28;981;-58
2022/08/30 17:15:49;;;;;;;;;;;;;;;23.91;66.16;99486.66;5132564;28;790;-58
2022/08/30 17:18:16;;;;;;;;;;;;;;;23.84;66.63;99494.31;5132669;28;814;-58
2022/08/30 17:20:46;;;;;;;;;;;;;;;23.72;67.06;99487.00;5132329;28;1044;-58
2022/08/30 17:23:12;;;;;;;;;;;;;;;23.62;67.39;99494.13;5132222;28;868;-57
2022/08/30 17:25:39;;;;;;;;;;;;;;;23.54;67.47;99495.84;5132018;28;1944;-58
2022/08/30 17:28:05;;;;;;;;;;;;;;;23.46;67.56;99497.56;5132357;28;833;-57
2022/08/30 17:30:32;;;;;;;;;;;;;;;23.39;67.39;99493.91;5132189;28;868;-58
2022/08/30 17:32:58;;;;;;;;;;;;;;;23.33;67.45;99497.94;5132267;28;806;-58
2022/08/30 17:35:24;;;;;;;;;;;;;;;23.26;67.68;99499.19;5132081;28;933;-58
2022/08/30 17:37:51;;;;;;;;;;;;;;;23.18;67.65;99507.28;5132454;28;789;-58
2022/08/30 17:40:18;;;;;;;;;;;;;;;23.10;68.04;99511.81;5132387;28;866;-58
2022/08/30 17:42:44;;;;;;;;;;;;;;;23.00;68.11;99516.03;5132438;28;971;-58
2022/08/30 17:45:12;;;;;;;;;;;;;;;22.90;68.29;99523.88;5132017;28;1874;-58
2022/08/30 17:47:38;;;;;;;;;;;;;;;22.83;68.78;99524.31;5132558;28;818;-58
2022/08/30 17:50:05;;;;;;;;;;;;;;;22.80;68.95;99526.06;5132447;28;869;-59
2022/08/30 17:52:32;;;;;;;;;;;;;;;22.81;68.85;99521.97;5132736;28;810;-59
2022/08/30 17:54:59;;;;;;;;;;;;;;;22.77;69.19;99523.47;5132201;28;1208;-58
2022/08/30 17:57:26;;;;;;;;;;;;;;;22.72;69.19;99522.09;5132079;28;865;-59
2022/08/30 17:59:52;;;;;;;;;;;;;;;22.69;69.68;99525.91;5131987;28;841;-59
2022/08/30 18:02:19;;;;;;;;;;;;;;;22.65;69.60;99530.22;5133044;27;987;-59
2022/08/30 18:04:49;;;;;;;;;;;;;;;22.61;69.81;99531.19;5135466;27;1933;-59
2022/08/30 18:07:16;;;;;;;;;;;;;;;22.59;70.30;99528.09;5135756;27;922;-59
2022/08/30 18:09:42;;;;;;;;;;;;;;;22.56;70.50;99534.72;5135886;27;888;-59
2022/08/30 18:12:10;;;;;;;;;;;;;;;22.56;70.38;99533.97;5135801;27;921;-59
2022/08/30 18:14:37;;;;;;;;;;;;;;;22.55;70.98;99538.03;5135774;27;839;-58
2022/08/30 18:17:04;;;;;;;;;;;;;;;22.52;71.16;99545.41;5135622;27;845;-59
2022/08/30 18:19:30;;;;;;;;;;;;;;;22.49;71.54;99540.78;5135622;27;794;-59
2022/08/30 18:21:58;;;;;;;;;;;;;;;22.43;71.65;99542.75;5135523;27;913;-59
2022/08/30 18:24:26;;;;;;;;;;;;;;;22.39;71.90;99536.53;5135360;27;1894;-59
2022/08/30 18:26:55;;;;;;;;;;;;;;;22.34;72.51;99543.66;5135246;27;874;-59
2022/08/30 18:29:22;;;;;;;;;;;;;;;22.28;72.56;99551.22;5135113;27;865;-59
2022/08/30 18:31:49;;;;;;;;;;;;;;;22.24;73.01;99553.47;5135075;27;945;-58
2022/08/30 18:34:15;;;;;;;;;;;;;;;22.20;73.29;99553.63;5135042;27;880;-59
2022/08/30 18:36:42;;;;;;;;;;;;;;;22.17;73.51;99554.63;5116816;27;874;-59
2022/08/30 18:39:08;;;;;;;;;;;;;;;22.20;73.87;99555.69;5134948;27;791;-59
2022/08/30 18:41:38;;;;;;;;;;;;;;;22.26;73.28;99556.56;5134958;27;837;-59
2022/08/30 18:44:04;;;;;;;;;;;;;;;22.30;73.76;99559.97;5135013;27;949;-59
2022/08/30 18:46:31;;;;;;;;;;;;;;;22.22;73.90;99556.78;5134845;27;1886;-59
2022/08/30 18:48:59;;;;;;;;;;;;;;;22.12;74.26;99560.94;5134823;27;857;-59
2022/08/30 18:51:59;;;;;;;;;;;;;;;22.08;74.48;99556.78;5134696;27;868;-59
2022/08/30 18:54:25;;;;;;;;;;;;;;;22.01;74.76;99566.41;5134560;27;1288;-59
2022/08/30 18:57:10;;;;;;;;;;;;;;;21.98;75.13;99567.38;5134500;27;877;-59
2022/08/30 18:59:37;;;;;;;;;;;;;;;22.13;75.27;99567.34;5134797;27;861;-59
2022/08/30 19:02:07;;;;;;;;;;;;;;;22.30;74.80;99571.22;5134459;27;889;-59
2022/08/30 19:04:34;;;;;;;;;;;;;;;22.39;74.38;99565.47;5134323;27;1917;-59
2022/08/30 19:07:01;;;;;;;;;;;;;;;22.45;74.14;99567.56;5134444;27;829;-59
2022/08/30 19:12:31;;;;;;;;;;;;;;;22.23;74.41;99565.97;5134410;27;663;-59
2022/08/30 19:14:58;;;;;;;;;;;;;;;22.08;75.06;99570.84;5134513;27;817;-59
2022/08/30 19:17:25;;;;;;;;;;;;;;;21.89;75.46;99567.47;5134341;27;862;-59
2022/08/30 19:19:52;;;;;;;;;;;;;;;21.68;76.26;99569.41;5134143;27;913;-59
2022/08/30 19:22:19;;;;;;;;;;;;;;;21.57;76.34;99570.78;5115724;27;818;-59
2022/08/30 19:24:46;;;;;;;;;;;;;;;21.51;76.91;99569.91;5115592;27;1941;-58
2022/08/30 19:27:13;;;;;;;;;;;;;;;21.56;77.07;99577.66;5134204;27;878;-59
2022/08/30 19:29:40;;;;;;;;;;;;;;;21.55;77.34;99576.13;5134003;27;794;-59
2022/08/30 19:32:07;;;;;;;;;;;;;;;21.48;77.71;99576.50;5133854;27;878;-59
2022/08/30 19:34:33;;;;;;;;;;;;;;;21.49;78.06;99563.22;5133967;27;818;-59
2022/08/30 19:37:00;;;;;;;;;;;;;;;21.49;78.15;99561.19;5133883;27;874;-59
2022/08/30 19:39:27;;;;;;;;;;;;;;;21.47;78.51;99569.31;5133795;27;825;-58
2022/08/30 19:41:53;;;;;;;;;;;;;;;21.35;79.28;99559.09;5133845;27;841;-59
2022/08/30 19:44:20;;;;;;;;;;;;;;;21.28;80.19;99560.25;5133598;27;1941;-59
2022/08/30 19:46:46;;;;;;;;;;;;;;;21.25;81.14;99563.25;5133988;27;853;-59
2022/08/30 19:49:13;;;;;;;;;;;;;;;21.23;81.75;99562.94;5133590;27;850;-59
2022/08/30 19:51:39;;;;;;;;;;;;;;;21.19;82.07;99560.34;5133465;27;820;-59
2022/08/30 19:54:06;;;;;;;;;;;;;;;21.14;82.32;99550.53;5133765;27;934;-59
2022/08/30 19:56:33;;;;;;;;;;;;;;;21.10;82.51;99560.41;5111498;28;1317;-59
2022/08/30 19:59:00;;;;;;;;;;;;;;;21.08;82.92;99555.28;5113015;28;932;-59
2022/08/30 20:01:26;;;;;;;;;;;;;;;21.05;82.95;99553.44;5112854;28;895;-59
2022/08/30 20:03:52;;;;;;;;;;;;;;;21.02;83.01;99557.22;5112877;28;822;-59
2022/08/30 20:06:19;;;;;;;;;;;;;;;21.05;82.89;99561.09;5112888;28;1913;-59